GMMX

Menara Airport

Marrakech, Morocco
METAR GMMX 212000Z 11001KT 6000 NSC 15/02 Q1028 NOSIG
Observed Flight Rules
Jan-21 @ 20:00 UTC (27 minutes ago) Marginal Visual Flight Rules
Wind Visibility Clouds
110° at 1 knots 6,003 meters
  • Clear skies
Temperatures Readings
Current 15°C / 59°F
Dewpoint 2°C / 36°F
Humidity 42%
Altimeter 30.35" Hg
Pressure 1028 hPa
Elevation 466
METAR GMMX 212000Z 11001KT 6000 NSC 15/02 Q1028 NOSIG
Observed Flight Rules
Jan-21 @ 20:00 UTC
(27 minutes ago)
MVFR
Wind Visibility
110° at 1 knots 6,003 meters
Clouds
  • Clear skies
Temperature Dewpoint
15°C / 59°F 2°C / 36°F
Humidity Altimeter Pressure
42% 30.35" Hg 1028 hPa